sensor_id;sensor_type;location;lat;lon;timestamp;temperature;humidity
64715;DHT22;51144;53.002;6.506;2022-12-07T00:01:26;2.90;99.90
64715;DHT22;51144;53.002;6.506;2022-12-07T00:03:53;3.00;99.90
64715;DHT22;51144;53.002;6.506;2022-12-07T00:06:20;3.00;99.90
64715;DHT22;51144;53.002;6.506;2022-12-07T00:08:47;3.00;99.90
64715;DHT22;51144;53.002;6.506;2022-12-07T00:11:15;3.10;99.90
64715;DHT22;51144;53.002;6.506;2022-12-07T00:13:41;3.10;99.90
64715;DHT22;51144;53.002;6.506;2022-12-07T00:16:13;3.10;99.90
64715;DHT22;51144;53.002;6.506;2022-12-07T00:18:40;3.10;99.90
64715;DHT22;51144;53.002;6.506;2022-12-07T00:21:11;3.10;99.90
64715;DHT22;51144;53.002;6.506;2022-12-07T00:23:39;3.10;99.90
64715;DHT22;51144;53.002;6.506;2022-12-07T00:26:10;3.00;99.90
64715;DHT22;51144;53.002;6.506;2022-12-07T00:28:35;3.00;99.90
64715;DHT22;51144;53.002;6.506;2022-12-07T00:31:03;3.00;99.90
64715;DHT22;51144;53.002;6.506;2022-12-07T00:33:29;3.00;99.90
64715;DHT22;51144;53.002;6.506;2022-12-07T00:35:56;3.00;99.90
64715;DHT22;51144;53.002;6.506;2022-12-07T00:38:22;2.90;99.90
64715;DHT22;51144;53.002;6.506;2022-12-07T00:41:18;2.90;99.90
64715;DHT22;51144;53.002;6.506;2022-12-07T00:43:45;2.80;99.90
64715;DHT22;51144;53.002;6.506;2022-12-07T00:46:12;2.80;99.90
64715;DHT22;51144;53.002;6.506;2022-12-07T00:48:38;2.80;99.90
64715;DHT22;51144;53.002;6.506;2022-12-07T00:51:04;2.80;99.90
64715;DHT22;51144;53.002;6.506;2022-12-07T00:53:30;2.80;99.90
64715;DHT22;51144;53.002;6.506;2022-12-07T00:55:57;2.80;99.90
64715;DHT22;51144;53.002;6.506;2022-12-07T00:58:23;2.80;99.90
64715;DHT22;51144;53.002;6.506;2022-12-07T01:00:49;2.80;99.90
64715;DHT22;51144;53.002;6.506;2022-12-07T01:03:15;2.80;99.90
64715;DHT22;51144;53.002;6.506;2022-12-07T01:05:52;2.80;99.90
64715;DHT22;51144;53.002;6.506;2022-12-07T01:08:19;2.80;99.90
64715;DHT22;51144;53.002;6.506;2022-12-07T01:10:45;2.80;99.90
64715;DHT22;51144;53.002;6.506;2022-12-07T01:13:11;2.80;99.90
64715;DHT22;51144;53.002;6.506;2022-12-07T01:15:43;2.80;99.90
64715;DHT22;51144;53.002;6.506;2022-12-07T01:18:09;2.80;99.90
64715;DHT22;51144;53.002;6.506;2022-12-07T01:20:35;2.80;99.90
64715;DHT22;51144;53.002;6.506;2022-12-07T01:23:02;2.70;99.90
64715;DHT22;51144;53.002;6.506;2022-12-07T01:25:27;2.70;99.90
64715;DHT22;51144;53.002;6.506;2022-12-07T01:27:53;2.80;99.90
64715;DHT22;51144;53.002;6.506;2022-12-07T01:30:18;2.80;99.90
64715;DHT22;51144;53.002;6.506;2022-12-07T01:32:44;2.80;99.90
64715;DHT22;51144;53.002;6.506;2022-12-07T01:35:10;2.90;99.90
64715;DHT22;51144;53.002;6.506;2022-12-07T01:37:36;2.90;99.90
64715;DHT22;51144;53.002;6.506;2022-12-07T01:40:04;3.00;99.90
64715;DHT22;51144;53.002;6.506;2022-12-07T01:42:30;3.00;99.90
64715;DHT22;51144;53.002;6.506;2022-12-07T01:45:37;3.10;99.90
64715;DHT22;51144;53.002;6.506;2022-12-07T01:48:04;3.10;99.90
64715;DHT22;51144;53.002;6.506;2022-12-07T01:50:30;3.20;99.90
64715;DHT22;51144;53.002;6.506;2022-12-07T01:53:01;3.30;99.90
64715;DHT22;51144;53.002;6.506;2022-12-07T01:55:28;3.40;99.90
64715;DHT22;51144;53.002;6.506;2022-12-07T01:57:54;3.50;99.90
64715;DHT22;51144;53.002;6.506;2022-12-07T02:00:20;3.50;99.90
64715;DHT22;51144;53.002;6.506;2022-12-07T02:03:00;3.50;99.90
64715;DHT22;51144;53.002;6.506;2022-12-07T02:05:28;3.50;99.90
64715;DHT22;51144;53.002;6.506;2022-12-07T02:07:56;3.40;99.90
64715;DHT22;51144;53.002;6.506;2022-12-07T02:10:28;3.40;99.90
64715;DHT22;51144;53.002;6.506;2022-12-07T02:13:11;3.40;99.90
64715;DHT22;51144;53.002;6.506;2022-12-07T02:16:03;3.30;99.90
64715;DHT22;51144;53.002;6.506;2022-12-07T02:18:51;3.30;99.90
64715;DHT22;51144;53.002;6.506;2022-12-07T02:29:45;3.10;99.90
64715;DHT22;51144;53.002;6.506;2022-12-07T02:35:20;3.10;99.90
64715;DHT22;51144;53.002;6.506;2022-12-07T02:38:04;3.10;99.90
64715;DHT22;51144;53.002;6.506;2022-12-07T02:40:35;3.00;99.90
64715;DHT22;51144;53.002;6.506;2022-12-07T02:43:24;3.10;99.90
64715;DHT22;51144;53.002;6.506;2022-12-07T02:45:57;3.10;99.90
64715;DHT22;51144;53.002;6.506;2022-12-07T02:48:26;3.10;99.90
64715;DHT22;51144;53.002;6.506;2022-12-07T02:51:33;3.10;99.90
64715;DHT22;51144;53.002;6.506;2022-12-07T02:53:59;3.10;99.90
64715;DHT22;51144;53.002;6.506;2022-12-07T03:07:32;2.90;99.90
64715;DHT22;51144;53.002;6.506;2022-12-07T03:10:13;3.00;99.90
64715;DHT22;51144;53.002;6.506;2022-12-07T03:15:44;3.00;99.90
64715;DHT22;51144;53.002;6.506;2022-12-07T03:18:13;3.00;99.90
64715;DHT22;51144;53.002;6.506;2022-12-07T03:20:41;3.00;99.90
64715;DHT22;51144;53.002;6.506;2022-12-07T03:23:08;3.00;99.90
64715;DHT22;51144;53.002;6.506;2022-12-07T03:25:43;3.00;99.90
64715;DHT22;51144;53.002;6.506;2022-12-07T03:28:12;3.10;99.90
64715;DHT22;51144;53.002;6.506;2022-12-07T03:31:03;3.10;99.90
64715;DHT22;51144;53.002;6.506;2022-12-07T03:33:42;3.10;99.90
64715;DHT22;51144;53.002;6.506;2022-12-07T03:36:25;3.10;99.90
64715;DHT22;51144;53.002;6.506;2022-12-07T03:39:03;3.10;99.90
64715;DHT22;51144;53.002;6.506;2022-12-07T03:41:34;3.10;99.90
64715;DHT22;51144;53.002;6.506;2022-12-07T03:44:00;3.10;99.90
64715;DHT22;51144;53.002;6.506;2022-12-07T03:49:25;3.20;99.90
64715;DHT22;51144;53.002;6.506;2022-12-07T03:57:24;3.10;99.90
64715;DHT22;51144;53.002;6.506;2022-12-07T03:59:51;3.10;99.90
64715;DHT22;51144;53.002;6.506;2022-12-07T04:02:18;3.10;99.90
64715;DHT22;51144;53.002;6.506;2022-12-07T04:04:45;3.00;99.90
64715;DHT22;51144;53.002;6.506;2022-12-07T04:07:11;3.10;99.90
64715;DHT22;51144;53.002;6.506;2022-12-07T04:09:36;3.10;99.90
64715;DHT22;51144;53.002;6.506;2022-12-07T04:12:02;3.00;99.90
64715;DHT22;51144;53.002;6.506;2022-12-07T04:14:28;3.00;99.90
64715;DHT22;51144;53.002;6.506;2022-12-07T04:16:55;3.00;99.90
64715;DHT22;51144;53.002;6.506;2022-12-07T04:19:24;3.00;99.90
64715;DHT22;51144;53.002;6.506;2022-12-07T04:21:50;2.90;99.90
64715;DHT22;51144;53.002;6.506;2022-12-07T04:24:16;2.90;99.90
64715;DHT22;51144;53.002;6.506;2022-12-07T04:26:42;2.90;99.90
64715;DHT22;51144;53.002;6.506;2022-12-07T04:29:09;3.00;99.90
64715;DHT22;51144;53.002;6.506;2022-12-07T04:31:35;3.00;99.90
64715;DHT22;51144;53.002;6.506;2022-12-07T04:34:01;3.10;99.90
64715;DHT22;51144;53.002;6.506;2022-12-07T04:36:26;3.20;99.90
64715;DHT22;51144;53.002;6.506;2022-12-07T04:38:55;3.10;99.90
64715;DHT22;51144;53.002;6.506;2022-12-07T04:41:23;3.20;99.90
64715;DHT22;51144;53.002;6.506;2022-12-07T04:43:56;3.10;99.90
64715;DHT22;51144;53.002;6.506;2022-12-07T04:46:23;3.00;99.90
64715;DHT22;51144;53.002;6.506;2022-12-07T04:48:50;3.00;99.90
64715;DHT22;51144;53.002;6.506;2022-12-07T04:51:19;3.00;99.90
64715;DHT22;51144;53.002;6.506;2022-12-07T04:53:45;3.00;99.90
64715;DHT22;51144;53.002;6.506;2022-12-07T04:56:10;2.90;99.90
64715;DHT22;51144;53.002;6.506;2022-12-07T04:58:36;2.90;99.90
64715;DHT22;51144;53.002;6.506;2022-12-07T05:01:02;2.90;99.90
64715;DHT22;51144;53.002;6.506;2022-12-07T05:03:27;2.80;99.90
64715;DHT22;51144;53.002;6.506;2022-12-07T05:05:53;2.80;99.90
64715;DHT22;51144;53.002;6.506;2022-12-07T05:08:19;2.80;99.90
64715;DHT22;51144;53.002;6.506;2022-12-07T05:10:44;2.70;99.90
64715;DHT22;51144;53.002;6.506;2022-12-07T05:13:10;2.70;99.90
64715;DHT22;51144;53.002;6.506;2022-12-07T05:15:36;2.70;99.90
64715;DHT22;51144;53.002;6.506;2022-12-07T05:18:01;2.70;99.90
64715;DHT22;51144;53.002;6.506;2022-12-07T05:20:28;2.60;99.90
64715;DHT22;51144;53.002;6.506;2022-12-07T05:22:54;2.60;99.90
64715;DHT22;51144;53.002;6.506;2022-12-07T05:25:19;2.60;99.90
64715;DHT22;51144;53.002;6.506;2022-12-07T05:27:45;2.50;99.90
64715;DHT22;51144;53.002;6.506;2022-12-07T05:30:11;2.50;99.90
64715;DHT22;51144;53.002;6.506;2022-12-07T05:32:37;2.40;99.90
64715;DHT22;51144;53.002;6.506;2022-12-07T05:35:03;2.40;99.90
64715;DHT22;51144;53.002;6.506;2022-12-07T05:37:28;2.40;99.90
64715;DHT22;51144;53.002;6.506;2022-12-07T05:39:54;2.40;99.90
64715;DHT22;51144;53.002;6.506;2022-12-07T05:42:19;2.30;99.90
64715;DHT22;51144;53.002;6.506;2022-12-07T05:44:46;2.30;99.90
64715;DHT22;51144;53.002;6.506;2022-12-07T05:47:12;2.20;99.90
64715;DHT22;51144;53.002;6.506;2022-12-07T05:49:38;2.20;99.90
64715;DHT22;51144;53.002;6.506;2022-12-07T05:52:04;2.20;99.90
64715;DHT22;51144;53.002;6.506;2022-12-07T05:54:30;2.20;99.90
64715;DHT22;51144;53.002;6.506;2022-12-07T05:56:56;2.10;99.90
64715;DHT22;51144;53.002;6.506;2022-12-07T05:59:21;2.10;99.90
64715;DHT22;51144;53.002;6.506;2022-12-07T06:02:06;2.20;99.90
64715;DHT22;51144;53.002;6.506;2022-12-07T06:04:34;2.20;99.90
64715;DHT22;51144;53.002;6.506;2022-12-07T06:07:00;2.20;99.90
64715;DHT22;51144;53.002;6.506;2022-12-07T06:09:27;2.20;99.90
64715;DHT22;51144;53.002;6.506;2022-12-07T06:11:54;2.20;99.90
64715;DHT22;51144;53.002;6.506;2022-12-07T06:14:38;2.30;99.90
64715;DHT22;51144;53.002;6.506;2022-12-07T06:17:03;2.30;99.90
64715;DHT22;51144;53.002;6.506;2022-12-07T06:19:29;2.40;99.90
64715;DHT22;51144;53.002;6.506;2022-12-07T06:21:55;2.40;99.90
64715;DHT22;51144;53.002;6.506;2022-12-07T06:24:21;2.40;99.90
64715;DHT22;51144;53.002;6.506;2022-12-07T06:26:47;2.40;99.90
64715;DHT22;51144;53.002;6.506;2022-12-07T06:29:13;2.40;99.90
64715;DHT22;51144;53.002;6.506;2022-12-07T06:31:38;2.40;99.90
64715;DHT22;51144;53.002;6.506;2022-12-07T06:34:06;2.40;99.90
64715;DHT22;51144;53.002;6.506;2022-12-07T06:36:34;2.40;99.90
64715;DHT22;51144;53.002;6.506;2022-12-07T06:39:00;2.50;99.90
64715;DHT22;51144;53.002;6.506;2022-12-07T06:41:25;2.50;99.90
64715;DHT22;51144;53.002;6.506;2022-12-07T06:43:51;2.50;99.90
64715;DHT22;51144;53.002;6.506;2022-12-07T06:46:17;2.50;99.90
64715;DHT22;51144;53.002;6.506;2022-12-07T06:48:43;2.60;99.90
64715;DHT22;51144;53.002;6.506;2022-12-07T06:51:09;2.60;99.90
64715;DHT22;51144;53.002;6.506;2022-12-07T06:53:36;2.60;99.90
64715;DHT22;51144;53.002;6.506;2022-12-07T06:56:02;2.70;99.90
64715;DHT22;51144;53.002;6.506;2022-12-07T06:58:27;2.70;99.90
64715;DHT22;51144;53.002;6.506;2022-12-07T07:00:53;2.80;99.90
64715;DHT22;51144;53.002;6.506;2022-12-07T07:03:19;2.80;99.90
64715;DHT22;51144;53.002;6.506;2022-12-07T07:05:45;2.80;99.90
64715;DHT22;51144;53.002;6.506;2022-12-07T07:08:11;2.80;99.90
64715;DHT22;51144;53.002;6.506;2022-12-07T07:10:37;2.70;99.90
64715;DHT22;51144;53.002;6.506;2022-12-07T07:13:03;2.70;99.90
64715;DHT22;51144;53.002;6.506;2022-12-07T07:15:29;2.60;99.90
64715;DHT22;51144;53.002;6.506;2022-12-07T07:17:54;2.60;99.90
64715;DHT22;51144;53.002;6.506;2022-12-07T07:20:20;2.60;99.90
64715;DHT22;51144;53.002;6.506;2022-12-07T07:22:46;2.50;99.90
64715;DHT22;51144;53.002;6.506;2022-12-07T07:25:11;2.50;99.90
64715;DHT22;51144;53.002;6.506;2022-12-07T07:27:37;2.50;99.90
64715;DHT22;51144;53.002;6.506;2022-12-07T07:30:03;2.50;99.90
64715;DHT22;51144;53.002;6.506;2022-12-07T07:32:29;2.50;99.90
64715;DHT22;51144;53.002;6.506;2022-12-07T07:34:55;2.60;99.90
64715;DHT22;51144;53.002;6.506;2022-12-07T07:37:20;2.60;99.90
64715;DHT22;51144;53.002;6.506;2022-12-07T07:39:46;2.60;99.90
64715;DHT22;51144;53.002;6.506;2022-12-07T07:42:12;2.50;99.90
64715;DHT22;51144;53.002;6.506;2022-12-07T07:44:37;2.50;99.90
64715;DHT22;51144;53.002;6.506;2022-12-07T07:47:03;2.50;99.90
64715;DHT22;51144;53.002;6.506;2022-12-07T07:49:29;2.50;99.90
64715;DHT22;51144;53.002;6.506;2022-12-07T07:51:54;2.50;99.90
64715;DHT22;51144;53.002;6.506;2022-12-07T07:54:20;2.50;99.90
64715;DHT22;51144;53.002;6.506;2022-12-07T07:56:45;2.40;99.90
64715;DHT22;51144;53.002;6.506;2022-12-07T07:59:11;2.40;99.90
64715;DHT22;51144;53.002;6.506;2022-12-07T08:01:37;2.30;99.90
64715;DHT22;51144;53.002;6.506;2022-12-07T08:04:02;2.30;99.90
64715;DHT22;51144;53.002;6.506;2022-12-07T08:06:28;2.30;99.90
64715;DHT22;51144;53.002;6.506;2022-12-07T08:08:53;2.30;99.90
64715;DHT22;51144;53.002;6.506;2022-12-07T08:11:19;2.30;99.90
64715;DHT22;51144;53.002;6.506;2022-12-07T08:13:46;2.30;99.90
64715;DHT22;51144;53.002;6.506;2022-12-07T08:16:14;2.30;99.90
64715;DHT22;51144;53.002;6.506;2022-12-07T08:18:41;2.30;99.90
64715;DHT22;51144;53.002;6.506;2022-12-07T08:21:09;2.30;99.90
64715;DHT22;51144;53.002;6.506;2022-12-07T08:23:35;2.40;99.90
64715;DHT22;51144;53.002;6.506;2022-12-07T08:26:05;2.40;99.90
64715;DHT22;51144;53.002;6.506;2022-12-07T08:28:32;2.40;99.90
64715;DHT22;51144;53.002;6.506;2022-12-07T08:31:10;2.60;99.90
64715;DHT22;51144;53.002;6.506;2022-12-07T08:33:37;2.60;99.90
64715;DHT22;51144;53.002;6.506;2022-12-07T08:36:08;2.70;99.90
64715;DHT22;51144;53.002;6.506;2022-12-07T08:38:35;2.70;99.90
64715;DHT22;51144;53.002;6.506;2022-12-07T08:41:01;2.70;99.90
64715;DHT22;51144;53.002;6.506;2022-12-07T08:43:27;2.70;99.90
64715;DHT22;51144;53.002;6.506;2022-12-07T08:46:21;2.80;99.90
64715;DHT22;51144;53.002;6.506;2022-12-07T08:48:58;2.80;99.90
64715;DHT22;51144;53.002;6.506;2022-12-07T08:51:26;2.80;99.90
64715;DHT22;51144;53.002;6.506;2022-12-07T08:53:52;2.70;99.90
64715;DHT22;51144;53.002;6.506;2022-12-07T08:56:19;2.70;99.90
64715;DHT22;51144;53.002;6.506;2022-12-07T08:58:45;2.70;99.90
64715;DHT22;51144;53.002;6.506;2022-12-07T09:01:11;2.70;99.90
64715;DHT22;51144;53.002;6.506;2022-12-07T09:03:37;2.70;99.90
64715;DHT22;51144;53.002;6.506;2022-12-07T09:06:02;2.70;99.90
64715;DHT22;51144;53.002;6.506;2022-12-07T09:08:36;2.80;99.90
64715;DHT22;51144;53.002;6.506;2022-12-07T09:11:03;2.80;99.90
64715;DHT22;51144;53.002;6.506;2022-12-07T09:13:28;2.90;99.90
64715;DHT22;51144;53.002;6.506;2022-12-07T09:15:54;3.00;99.90
64715;DHT22;51144;53.002;6.506;2022-12-07T09:18:19;3.10;99.90
64715;DHT22;51144;53.002;6.506;2022-12-07T09:20:45;3.20;99.90
64715;DHT22;51144;53.002;6.506;2022-12-07T09:23:11;3.30;99.90
64715;DHT22;51144;53.002;6.506;2022-12-07T09:25:37;3.40;99.90
64715;DHT22;51144;53.002;6.506;2022-12-07T09:28:03;3.60;99.90
64715;DHT22;51144;53.002;6.506;2022-12-07T09:30:28;4.00;99.90
64715;DHT22;51144;53.002;6.506;2022-12-07T09:32:55;4.20;99.90
64715;DHT22;51144;53.002;6.506;2022-12-07T09:35:22;4.10;99.90
64715;DHT22;51144;53.002;6.506;2022-12-07T09:37:48;4.00;99.90
64715;DHT22;51144;53.002;6.506;2022-12-07T09:40:14;4.00;99.90
64715;DHT22;51144;53.002;6.506;2022-12-07T09:42:44;3.90;99.90
64715;DHT22;51144;53.002;6.506;2022-12-07T09:45:19;3.90;99.90
64715;DHT22;51144;53.002;6.506;2022-12-07T09:47:45;3.90;99.90
64715;DHT22;51144;53.002;6.506;2022-12-07T09:50:20;3.80;99.90
64715;DHT22;51144;53.002;6.506;2022-12-07T09:52:48;3.80;99.90
64715;DHT22;51144;53.002;6.506;2022-12-07T09:55:16;3.90;99.90
64715;DHT22;51144;53.002;6.506;2022-12-07T09:57:43;3.90;99.90
64715;DHT22;51144;53.002;6.506;2022-12-07T10:00:18;3.90;99.90
64715;DHT22;51144;53.002;6.506;2022-12-07T10:02:53;3.90;99.90
64715;DHT22;51144;53.002;6.506;2022-12-07T10:07:54;3.90;99.90
64715;DHT22;51144;53.002;6.506;2022-12-07T10:10:25;3.90;99.90
64715;DHT22;51144;53.002;6.506;2022-12-07T10:13:12;4.00;99.90
64715;DHT22;51144;53.002;6.506;2022-12-07T10:15:52;4.00;99.90
64715;DHT22;51144;53.002;6.506;2022-12-07T10:20:46;4.00;99.90
64715;DHT22;51144;53.002;6.506;2022-12-07T10:23:17;4.10;99.90
64715;DHT22;51144;53.002;6.506;2022-12-07T10:25:44;4.30;99.90
64715;DHT22;51144;53.002;6.506;2022-12-07T10:28:14;5.10;99.90
64715;DHT22;51144;53.002;6.506;2022-12-07T10:30:56;5.60;99.90
64715;DHT22;51144;53.002;6.506;2022-12-07T10:33:35;5.60;99.90
64715;DHT22;51144;53.002;6.506;2022-12-07T10:36:22;5.50;99.90
64715;DHT22;51144;53.002;6.506;2022-12-07T10:39:17;5.50;99.90
64715;DHT22;51144;53.002;6.506;2022-12-07T10:41:57;5.50;99.90
64715;DHT22;51144;53.002;6.506;2022-12-07T10:44:33;5.40;99.90
64715;DHT22;51144;53.002;6.506;2022-12-07T10:53:24;5.10;99.90
64715;DHT22;51144;53.002;6.506;2022-12-07T11:06:42;5.20;99.90
64715;DHT22;51144;53.002;6.506;2022-12-07T11:15:36;5.40;99.90
64715;DHT22;51144;53.002;6.506;2022-12-07T11:18:21;5.40;99.90
64715;DHT22;51144;53.002;6.506;2022-12-07T11:23:49;5.40;99.90
64715;DHT22;51144;53.002;6.506;2022-12-07T11:29:17;5.40;99.90
64715;DHT22;51144;53.002;6.506;2022-12-07T11:32:02;5.50;99.90
64715;DHT22;51144;53.002;6.506;2022-12-07T11:37:30;5.60;99.90
64715;DHT22;51144;53.002;6.506;2022-12-07T11:40:00;5.70;99.90
64715;DHT22;51144;53.002;6.506;2022-12-07T11:42:36;5.80;99.90
64715;DHT22;51144;53.002;6.506;2022-12-07T11:45:16;5.80;99.90
64715;DHT22;51144;53.002;6.506;2022-12-07T11:47:58;6.10;99.90
64715;DHT22;51144;53.002;6.506;2022-12-07T11:50:39;6.70;99.90
64715;DHT22;51144;53.002;6.506;2022-12-07T11:53:10;7.30;99.90
64715;DHT22;51144;53.002;6.506;2022-12-07T12:06:44;7.40;99.90
64715;DHT22;51144;53.002;6.506;2022-12-07T12:09:26;7.60;99.90
64715;DHT22;51144;53.002;6.506;2022-12-07T12:20:29;6.80;99.90
64715;DHT22;51144;53.002;6.506;2022-12-07T12:23:12;6.70;99.90
64715;DHT22;51144;53.002;6.506;2022-12-07T12:25:42;6.60;99.90
64715;DHT22;51144;53.002;6.506;2022-12-07T12:31:13;6.50;99.90
64715;DHT22;51144;53.002;6.506;2022-12-07T12:44:02;6.10;99.90
64715;DHT22;51144;53.002;6.506;2022-12-07T12:59:41;5.60;99.90
64715;DHT22;51144;53.002;6.506;2022-12-07T13:02:22;5.60;99.90
64715;DHT22;51144;53.002;6.506;2022-12-07T13:15:49;4.60;99.90
64715;DHT22;51144;53.002;6.506;2022-12-07T13:23:31;4.50;99.90
64715;DHT22;51144;53.002;6.506;2022-12-07T13:28:35;4.60;99.90
64715;DHT22;51144;53.002;6.506;2022-12-07T13:31:33;4.60;99.90
64715;DHT22;51144;53.002;6.506;2022-12-07T13:34:00;4.60;99.90
64715;DHT22;51144;53.002;6.506;2022-12-07T13:36:30;4.60;99.90
64715;DHT22;51144;53.002;6.506;2022-12-07T13:41:41;4.60;99.90
64715;DHT22;51144;53.002;6.506;2022-12-07T13:44:14;4.60;99.90
64715;DHT22;51144;53.002;6.506;2022-12-07T13:47:00;4.60;99.90
64715;DHT22;51144;53.002;6.506;2022-12-07T13:49:31;4.60;99.90
64715;DHT22;51144;53.002;6.506;2022-12-07T13:52:22;4.60;99.90
64715;DHT22;51144;53.002;6.506;2022-12-07T13:57:34;4.60;99.90
64715;DHT22;51144;53.002;6.506;2022-12-07T14:00:01;4.60;99.90
64715;DHT22;51144;53.002;6.506;2022-12-07T14:02:29;4.60;99.90
64715;DHT22;51144;53.002;6.506;2022-12-07T14:05:13;4.50;99.90
64715;DHT22;51144;53.002;6.506;2022-12-07T14:12:56;4.50;99.90
64715;DHT22;51144;53.002;6.506;2022-12-07T14:15:28;4.50;99.90
64715;DHT22;51144;53.002;6.506;2022-12-07T14:17:57;4.40;99.90
64715;DHT22;51144;53.002;6.506;2022-12-07T14:20:49;4.40;99.90
64715;DHT22;51144;53.002;6.506;2022-12-07T14:23:24;4.40;99.90
64715;DHT22;51144;53.002;6.506;2022-12-07T14:25:52;4.40;99.90
64715;DHT22;51144;53.002;6.506;2022-12-07T14:28:32;4.40;99.90
64715;DHT22;51144;53.002;6.506;2022-12-07T14:31:00;4.40;99.90
64715;DHT22;51144;53.002;6.506;2022-12-07T14:33:26;4.40;99.90
64715;DHT22;51144;53.002;6.506;2022-12-07T14:35:52;4.40;99.90
64715;DHT22;51144;53.002;6.506;2022-12-07T14:38:24;4.30;99.90
64715;DHT22;51144;53.002;6.506;2022-12-07T14:40:51;4.30;99.90
64715;DHT22;51144;53.002;6.506;2022-12-07T14:43:18;4.30;99.90
64715;DHT22;51144;53.002;6.506;2022-12-07T14:45:45;4.30;99.90
64715;DHT22;51144;53.002;6.506;2022-12-07T14:48:15;4.40;99.90
64715;DHT22;51144;53.002;6.506;2022-12-07T14:50:47;4.40;99.90
64715;DHT22;51144;53.002;6.506;2022-12-07T14:53:21;4.40;99.90
64715;DHT22;51144;53.002;6.506;2022-12-07T14:55:48;4.30;99.90
64715;DHT22;51144;53.002;6.506;2022-12-07T14:58:15;4.30;99.90
64715;DHT22;51144;53.002;6.506;2022-12-07T15:00:41;4.30;99.90
64715;DHT22;51144;53.002;6.506;2022-12-07T15:03:06;4.30;99.90
64715;DHT22;51144;53.002;6.506;2022-12-07T15:05:32;4.30;99.90
64715;DHT22;51144;53.002;6.506;2022-12-07T15:07:58;4.30;99.90
64715;DHT22;51144;53.002;6.506;2022-12-07T15:10:27;4.30;99.90
64715;DHT22;51144;53.002;6.506;2022-12-07T15:13:01;4.30;99.90
64715;DHT22;51144;53.002;6.506;2022-12-07T15:15:49;4.30;99.90
64715;DHT22;51144;53.002;6.506;2022-12-07T15:18:15;4.30;99.90
64715;DHT22;51144;53.002;6.506;2022-12-07T15:20:41;4.30;99.90
64715;DHT22;51144;53.002;6.506;2022-12-07T15:23:07;4.30;99.90
64715;DHT22;51144;53.002;6.506;2022-12-07T15:25:33;4.30;99.90
64715;DHT22;51144;53.002;6.506;2022-12-07T15:27:59;4.20;99.90
64715;DHT22;51144;53.002;6.506;2022-12-07T15:30:25;4.20;99.90
64715;DHT22;51144;53.002;6.506;2022-12-07T15:32:52;4.20;99.90
64715;DHT22;51144;53.002;6.506;2022-12-07T15:35:18;4.10;99.90
64715;DHT22;51144;53.002;6.506;2022-12-07T15:37:44;4.10;99.90
64715;DHT22;51144;53.002;6.506;2022-12-07T15:40:12;4.00;99.90
64715;DHT22;51144;53.002;6.506;2022-12-07T15:42:39;4.00;99.90
64715;DHT22;51144;53.002;6.506;2022-12-07T15:45:06;3.90;99.90
64715;DHT22;51144;53.002;6.506;2022-12-07T15:47:35;3.90;99.90
64715;DHT22;51144;53.002;6.506;2022-12-07T15:50:03;3.90;99.90
64715;DHT22;51144;53.002;6.506;2022-12-07T15:52:30;3.90;99.90
64715;DHT22;51144;53.002;6.506;2022-12-07T15:54:55;3.90;99.90
64715;DHT22;51144;53.002;6.506;2022-12-07T15:57:21;3.90;99.90
64715;DHT22;51144;53.002;6.506;2022-12-07T15:59:47;3.90;99.90
64715;DHT22;51144;53.002;6.506;2022-12-07T16:02:12;3.80;99.90
64715;DHT22;51144;53.002;6.506;2022-12-07T16:04:38;3.80;99.90
64715;DHT22;51144;53.002;6.506;2022-12-07T16:07:04;3.80;99.90
64715;DHT22;51144;53.002;6.506;2022-12-07T16:09:29;3.80;99.90
64715;DHT22;51144;53.002;6.506;2022-12-07T16:11:55;3.80;99.90
64715;DHT22;51144;53.002;6.506;2022-12-07T16:14:21;3.80;99.90
64715;DHT22;51144;53.002;6.506;2022-12-07T16:16:47;3.80;99.90
64715;DHT22;51144;53.002;6.506;2022-12-07T16:19:13;3.80;99.90
64715;DHT22;51144;53.002;6.506;2022-12-07T16:21:38;3.80;99.90
64715;DHT22;51144;53.002;6.506;2022-12-07T16:24:05;3.80;99.90
64715;DHT22;51144;53.002;6.506;2022-12-07T16:26:31;3.80;99.90
64715;DHT22;51144;53.002;6.506;2022-12-07T16:28:57;3.80;99.90
64715;DHT22;51144;53.002;6.506;2022-12-07T16:31:25;3.80;99.90
64715;DHT22;51144;53.002;6.506;2022-12-07T16:33:53;3.80;99.90
64715;DHT22;51144;53.002;6.506;2022-12-07T16:36:20;3.80;99.90
64715;DHT22;51144;53.002;6.506;2022-12-07T16:38:47;3.80;99.90
64715;DHT22;51144;53.002;6.506;2022-12-07T16:41:13;3.80;99.90
64715;DHT22;51144;53.002;6.506;2022-12-07T16:43:39;3.80;99.90
64715;DHT22;51144;53.002;6.506;2022-12-07T16:46:04;3.80;99.90
64715;DHT22;51144;53.002;6.506;2022-12-07T16:48:30;3.70;99.90
64715;DHT22;51144;53.002;6.506;2022-12-07T16:50:56;3.80;99.90
64715;DHT22;51144;53.002;6.506;2022-12-07T16:53:23;3.70;99.90
64715;DHT22;51144;53.002;6.506;2022-12-07T16:55:49;3.80;99.90
64715;DHT22;51144;53.002;6.506;2022-12-07T16:58:16;3.80;99.90
64715;DHT22;51144;53.002;6.506;2022-12-07T17:00:43;3.80;99.90
64715;DHT22;51144;53.002;6.506;2022-12-07T17:03:09;3.80;99.90
64715;DHT22;51144;53.002;6.506;2022-12-07T17:05:40;3.80;99.90
64715;DHT22;51144;53.002;6.506;2022-12-07T17:08:07;3.70;99.90
64715;DHT22;51144;53.002;6.506;2022-12-07T17:10:35;3.70;99.90
64715;DHT22;51144;53.002;6.506;2022-12-07T17:13:01;3.70;99.90
64715;DHT22;51144;53.002;6.506;2022-12-07T17:15:27;3.70;99.90
64715;DHT22;51144;53.002;6.506;2022-12-07T17:17:57;3.60;99.90
64715;DHT22;51144;53.002;6.506;2022-12-07T17:20:26;3.60;99.90
64715;DHT22;51144;53.002;6.506;2022-12-07T17:22:52;3.60;99.90
64715;DHT22;51144;53.002;6.506;2022-12-07T17:25:19;3.60;99.90
64715;DHT22;51144;53.002;6.506;2022-12-07T17:27:45;3.60;99.90
64715;DHT22;51144;53.002;6.506;2022-12-07T17:30:12;3.50;99.90
64715;DHT22;51144;53.002;6.506;2022-12-07T17:32:38;3.50;99.90
64715;DHT22;51144;53.002;6.506;2022-12-07T17:35:04;3.50;99.90
64715;DHT22;51144;53.002;6.506;2022-12-07T17:37:31;3.50;99.90
64715;DHT22;51144;53.002;6.506;2022-12-07T17:39:57;3.40;99.90
64715;DHT22;51144;53.002;6.506;2022-12-07T17:42:26;3.40;99.90
64715;DHT22;51144;53.002;6.506;2022-12-07T17:45:01;3.40;99.90
64715;DHT22;51144;53.002;6.506;2022-12-07T17:47:27;3.40;99.90
64715;DHT22;51144;53.002;6.506;2022-12-07T17:49:53;3.40;99.90
64715;DHT22;51144;53.002;6.506;2022-12-07T17:52:18;3.50;99.90
64715;DHT22;51144;53.002;6.506;2022-12-07T17:55:03;3.50;99.90
64715;DHT22;51144;53.002;6.506;2022-12-07T17:57:29;3.50;99.90
64715;DHT22;51144;53.002;6.506;2022-12-07T17:59:54;3.50;99.90
64715;DHT22;51144;53.002;6.506;2022-12-07T18:02:20;3.50;99.90
64715;DHT22;51144;53.002;6.506;2022-12-07T18:04:46;3.40;99.90
64715;DHT22;51144;53.002;6.506;2022-12-07T18:07:12;3.50;99.90
64715;DHT22;51144;53.002;6.506;2022-12-07T18:09:38;3.40;99.90
64715;DHT22;51144;53.002;6.506;2022-12-07T18:12:04;3.40;99.90
64715;DHT22;51144;53.002;6.506;2022-12-07T18:14:30;3.40;99.90
64715;DHT22;51144;53.002;6.506;2022-12-07T18:16:55;3.40;99.90
64715;DHT22;51144;53.002;6.506;2022-12-07T18:19:21;3.30;99.90
64715;DHT22;51144;53.002;6.506;2022-12-07T18:21:47;3.30;99.90
64715;DHT22;51144;53.002;6.506;2022-12-07T18:24:15;3.30;99.90